createdAt,value
2019-03-23T00:02:29.192Z,46.57
2019-03-23T00:04:57.883Z,46.54
2019-03-23T00:07:28.158Z,46.73
2019-03-23T00:09:58.658Z,46.92
2019-03-23T00:12:27.301Z,47.71
2019-03-23T00:14:55.952Z,47.83
2019-03-23T00:17:24.669Z,47.89
2019-03-23T00:19:53.303Z,47.61
2019-03-23T00:22:21.942Z,48.06
2019-03-23T00:24:50.582Z,48.54
2019-03-23T00:27:19.628Z,48.28
2019-03-23T00:29:48.189Z,48.00
2019-03-23T00:32:16.770Z,47.50
2019-03-23T00:34:45.465Z,47.39
2019-03-23T00:37:14.467Z,47.08
2019-03-23T00:39:44.231Z,46.73
2019-03-23T00:42:12.926Z,46.86
2019-03-23T00:44:41.564Z,47.09
2019-03-23T00:47:10.206Z,47.47
2019-03-23T00:49:38.831Z,47.37
2019-03-23T00:52:07.465Z,47.13
2019-03-23T00:54:37.757Z,48.20
2019-03-23T00:57:06.441Z,47.51
2019-03-23T00:59:35.174Z,48.47
2019-03-23T01:02:03.739Z,47.90
2019-03-23T01:04:32.419Z,48.24
2019-03-23T01:07:01.065Z,48.79
2019-03-23T01:09:29.638Z,48.76
2019-03-23T01:11:58.257Z,48.87
2019-03-23T01:14:26.904Z,48.69
2019-03-23T01:16:55.537Z,48.66
2019-03-23T01:19:24.140Z,48.92
2019-03-23T01:21:52.719Z,48.87
2019-03-23T01:24:21.378Z,48.70
2019-03-23T01:26:50.135Z,47.70
2019-03-23T01:29:18.783Z,48.35
2019-03-23T01:31:47.420Z,48.46
2019-03-23T01:34:16.397Z,48.64
2019-03-23T01:36:44.902Z,48.49
2019-03-23T01:39:13.550Z,48.89
2019-03-23T01:41:42.487Z,49.05
2019-03-23T01:44:11.126Z,48.78
2019-03-23T01:46:39.706Z,49.16
2019-03-23T01:49:08.426Z,49.11
2019-03-23T01:51:37.059Z,48.79
2019-03-23T01:54:05.666Z,48.85
2019-03-23T01:56:34.232Z,49.34
2019-03-23T01:59:02.877Z,49.52
2019-03-23T02:01:31.651Z,49.68
2019-03-23T02:04:01.814Z,49.94
2019-03-23T02:06:30.452Z,49.83
2019-03-23T02:08:58.993Z,49.89
2019-03-23T02:11:27.567Z,49.46
2019-03-23T02:13:56.220Z,49.63
2019-03-23T02:16:26.194Z,49.63
2019-03-23T02:18:54.775Z,49.61
2019-03-23T02:21:26.125Z,49.44
2019-03-23T02:23:54.800Z,49.15
2019-03-23T02:26:23.451Z,48.91
2019-03-23T02:28:52.019Z,48.99
2019-03-23T02:31:20.629Z,48.99
2019-03-23T02:33:49.268Z,48.91
2019-03-23T02:36:17.907Z,49.02
2019-03-23T02:38:46.548Z,49.47
2019-03-23T02:41:15.115Z,49.48
2019-03-23T02:43:43.606Z,48.88
2019-03-23T02:46:12.195Z,49.47
2019-03-23T02:48:41.113Z,49.51
2019-03-23T02:51:09.748Z,49.58
2019-03-23T02:53:38.311Z,49.81
2019-03-23T02:56:07.577Z,49.90
2019-03-23T02:58:36.296Z,50.28
2019-03-23T03:01:04.972Z,50.01
2019-03-23T03:03:35.073Z,49.53
2019-03-23T03:06:03.862Z,49.87
2019-03-23T03:08:32.532Z,50.07
2019-03-23T03:11:01.236Z,49.85
2019-03-23T03:13:29.743Z,49.52
2019-03-23T03:15:58.346Z,49.34
2019-03-23T03:18:26.993Z,49.62
2019-03-23T03:20:55.705Z,49.77
2019-03-23T03:23:24.377Z,49.40
2019-03-23T03:25:53.220Z,48.96
2019-03-23T03:28:21.959Z,49.02
2019-03-23T03:30:50.680Z,49.23
2019-03-23T03:33:19.417Z,49.08
2019-03-23T03:35:48.109Z,48.82
2019-03-23T03:38:18.090Z,46.85
2019-03-23T03:40:46.739Z,46.11
2019-03-23T03:43:15.396Z,46.17
2019-03-23T03:45:45.640Z,45.65
2019-03-23T03:48:14.283Z,45.57
2019-03-23T03:50:42.880Z,46.57
2019-03-23T03:53:11.633Z,47.30
2019-03-23T03:55:40.267Z,48.70
2019-03-23T03:58:08.844Z,49.10
2019-03-23T04:00:37.462Z,50.21
2019-03-23T04:03:06.101Z,50.39
2019-03-23T04:05:34.686Z,51.08
2019-03-23T04:08:11.270Z,50.99
2019-03-23T04:10:33.823Z,50.96
2019-03-23T04:13:02.465Z,50.75
2019-03-23T04:15:32.162Z,50.53
2019-03-23T04:18:00.790Z,50.91
2019-03-23T04:20:29.427Z,51.49
2019-03-23T04:22:57.968Z,51.21
2019-03-23T04:25:26.483Z,51.21
2019-03-23T04:27:55.124Z,51.43
2019-03-23T04:30:23.889Z,50.82
2019-03-23T04:32:52.530Z,50.52
2019-03-23T04:35:21.111Z,51.76
2019-03-23T04:37:51.239Z,51.85
2019-03-23T04:40:19.952Z,51.11
2019-03-23T04:42:48.531Z,51.47
2019-03-23T04:45:17.296Z,51.49
2019-03-23T04:47:46.188Z,51.60
2019-03-23T04:50:14.844Z,52.23
2019-03-23T04:52:43.605Z,51.76
2019-03-23T04:55:13.148Z,51.91
2019-03-23T04:57:41.794Z,52.15
2019-03-23T05:00:13.572Z,52.25
2019-03-23T05:02:42.217Z,52.72
2019-03-23T05:05:11.147Z,52.59
2019-03-23T05:07:39.753Z,53.36
2019-03-23T05:10:10.093Z,52.62
2019-03-23T05:12:38.810Z,52.42
2019-03-23T05:15:08.726Z,51.34
2019-03-23T05:17:37.448Z,51.21
2019-03-23T05:20:07.902Z,51.09
2019-03-23T05:22:38.078Z,51.13
2019-03-23T05:25:07.229Z,49.70
2019-03-23T05:27:35.942Z,48.57
2019-03-23T05:30:07.640Z,45.46
2019-03-23T05:32:36.224Z,44.69
2019-03-23T05:35:07.043Z,44.78
2019-03-23T05:37:35.746Z,44.57
2019-03-23T05:40:06.697Z,43.86
2019-03-23T05:42:35.597Z,43.91
2019-03-23T05:45:05.948Z,42.91
2019-03-23T05:47:34.586Z,42.54
2019-03-23T05:50:03.342Z,41.66
2019-03-23T05:52:32.024Z,41.79
2019-03-23T05:55:00.675Z,41.69
2019-03-23T05:57:29.335Z,40.87
2019-03-23T05:59:58.018Z,40.22
2019-03-23T06:02:26.603Z,40.72
2019-03-23T06:04:55.262Z,41.04
2019-03-23T06:07:23.965Z,40.15
2019-03-23T06:09:52.680Z,39.59
2019-03-23T06:12:21.258Z,38.96
2019-03-23T06:14:50.170Z,38.05
2019-03-23T06:17:18.898Z,39.49
2019-03-23T06:19:47.548Z,37.89
2019-03-23T06:22:19.239Z,38.35
2019-03-23T06:24:47.749Z,38.28
2019-03-23T06:27:17.578Z,37.34
2019-03-23T06:29:46.264Z,37.43
2019-03-23T06:32:16.488Z,37.32
2019-03-23T06:34:46.357Z,37.26
2019-03-23T06:37:15.081Z,36.35
2019-03-23T06:39:43.784Z,36.65
2019-03-23T06:42:14.885Z,36.11
2019-03-23T06:44:43.644Z,35.37
2019-03-23T06:47:12.304Z,36.46
2019-03-23T06:49:42.381Z,36.46
2019-03-23T06:52:11.081Z,36.71
2019-03-23T06:54:39.781Z,35.36
2019-03-23T06:57:08.353Z,35.89
2019-03-23T06:59:37.050Z,35.21
2019-03-23T07:02:05.698Z,34.90
2019-03-23T07:04:34.352Z,34.28
2019-03-23T07:07:02.973Z,34.52
2019-03-23T07:09:31.474Z,34.49
2019-03-23T07:12:00.399Z,33.42
2019-03-23T07:14:29.084Z,33.79
2019-03-23T07:16:57.736Z,33.66
2019-03-23T07:19:26.253Z,34.23
2019-03-23T07:21:54.948Z,33.91
2019-03-23T07:24:23.642Z,34.69
2019-03-23T07:26:52.296Z,34.62
2019-03-23T07:29:20.995Z,33.94
2019-03-23T07:31:49.512Z,33.03
2019-03-23T07:34:20.160Z,33.80
2019-03-23T07:36:48.956Z,33.88
2019-03-23T07:39:27.264Z,32.86
2019-03-23T07:41:49.468Z,32.90
2019-03-23T07:44:18.025Z,32.14
2019-03-23T07:46:46.664Z,32.11
2019-03-23T07:49:15.326Z,36.54
2019-03-23T07:51:43.953Z,32.03
2019-03-23T07:54:12.613Z,31.80
2019-03-23T07:56:41.335Z,30.82
2019-03-23T07:59:11.784Z,31.00
2019-03-23T08:01:40.452Z,31.83
2019-03-23T08:04:10.577Z,31.11
2019-03-23T08:06:39.219Z,31.06
2019-03-23T08:09:08.754Z,30.55
2019-03-23T08:11:37.757Z,31.15
2019-03-23T08:14:09.328Z,30.69
2019-03-23T08:16:37.988Z,30.50
2019-03-23T08:19:08.014Z,30.04
2019-03-23T08:21:37.396Z,29.49
2019-03-23T08:24:07.487Z,29.63
2019-03-23T08:26:36.289Z,29.73
2019-03-23T08:29:04.954Z,29.56
2019-03-23T08:31:33.610Z,29.85
2019-03-23T08:34:07.379Z,29.45
2019-03-23T08:36:35.974Z,29.90
2019-03-23T08:39:06.257Z,29.23
2019-03-23T08:41:34.978Z,29.42
2019-03-23T08:44:03.629Z,28.98
2019-03-23T08:46:32.724Z,31.08
2019-03-23T08:49:04.228Z,29.46
2019-03-23T08:51:32.879Z,28.49
2019-03-23T08:54:01.494Z,28.25
2019-03-23T08:56:30.138Z,28.87
2019-03-23T08:58:58.861Z,28.67
2019-03-23T09:01:29.943Z,28.83
2019-03-23T09:03:58.452Z,29.23
2019-03-23T09:06:27.112Z,28.64
2019-03-23T09:08:55.798Z,28.27
2019-03-23T09:11:25.690Z,28.23
2019-03-23T09:13:54.275Z,28.38
2019-03-23T09:16:22.972Z,27.65
2019-03-23T09:18:51.621Z,26.85
2019-03-23T09:21:20.364Z,27.96
2019-03-23T09:23:49.059Z,26.75
2019-03-23T09:26:17.585Z,26.75
2019-03-23T09:28:46.045Z,26.94
2019-03-23T09:31:16.749Z,27.31
2019-03-23T09:33:45.477Z,27.06
2019-03-23T09:36:13.995Z,26.58
2019-03-23T09:38:42.685Z,27.54
2019-03-23T09:41:11.336Z,27.65
2019-03-23T09:43:39.984Z,26.64
2019-03-23T09:46:08.612Z,26.00
2019-03-23T09:48:37.117Z,26.74
2019-03-23T09:51:05.834Z,25.95
2019-03-23T09:53:34.545Z,26.48
2019-03-23T09:56:03.113Z,26.34
2019-03-23T09:58:31.751Z,26.34
2019-03-23T10:01:00.438Z,26.75
2019-03-23T10:03:29.011Z,26.89
2019-03-23T10:05:57.658Z,26.89
2019-03-23T10:08:26.693Z,26.62
2019-03-23T10:10:55.339Z,26.51
2019-03-23T10:13:24.001Z,26.50
2019-03-23T10:15:52.695Z,26.91
2019-03-23T10:18:21.414Z,26.74
2019-03-23T10:20:49.995Z,25.58
2019-03-23T10:23:18.676Z,25.64
2019-03-23T10:25:47.489Z,25.36
2019-03-23T10:28:16.119Z,25.91
2019-03-23T10:30:44.810Z,26.08
2019-03-23T10:33:13.325Z,25.33
2019-03-23T10:35:42.054Z,25.51
2019-03-23T10:38:10.796Z,25.23
2019-03-23T10:40:39.477Z,25.58
2019-03-23T10:43:08.168Z,25.73
2019-03-23T10:45:44.176Z,25.34
2019-03-23T10:48:08.486Z,24.48
2019-03-23T10:50:38.266Z,24.89
2019-03-23T10:53:06.982Z,24.87
2019-03-23T10:55:37.070Z,25.08
2019-03-23T10:58:05.660Z,25.26
2019-03-23T11:00:34.347Z,26.08
2019-03-23T11:03:03.138Z,25.34
2019-03-23T11:05:31.773Z,25.23
2019-03-23T11:08:00.396Z,25.27
2019-03-23T11:10:29.092Z,24.75
2019-03-23T11:12:57.732Z,25.30
2019-03-23T11:15:26.437Z,25.41
2019-03-23T11:17:55.883Z,25.07
2019-03-23T11:20:24.623Z,24.89
2019-03-23T11:22:53.431Z,24.67
2019-03-23T11:25:22.043Z,24.42
2019-03-23T11:27:51.469Z,24.45
2019-03-23T11:30:20.185Z,24.59
2019-03-23T11:32:48.813Z,24.60
2019-03-23T11:35:19.893Z,23.66
2019-03-23T11:37:48.754Z,24.33
2019-03-23T11:40:17.738Z,24.38
2019-03-23T11:42:50.200Z,24.61
2019-03-23T11:45:16.846Z,24.86
2019-03-23T11:47:45.495Z,24.18
2019-03-23T11:50:14.195Z,24.30
2019-03-23T11:52:42.851Z,24.27
2019-03-23T11:55:11.497Z,24.10
2019-03-23T11:57:40.199Z,24.51
2019-03-23T12:00:11.989Z,24.53
2019-03-23T12:02:40.661Z,24.46
2019-03-23T12:05:10.534Z,24.45
2019-03-23T12:07:39.255Z,24.87
2019-03-23T12:10:10.601Z,24.40
2019-03-23T12:12:39.290Z,24.31
2019-03-23T12:15:10.248Z,24.14
2019-03-23T12:17:38.904Z,24.56
2019-03-23T12:20:08.494Z,23.82
2019-03-23T12:22:38.597Z,24.04
2019-03-23T12:25:07.959Z,23.89
2019-03-23T12:27:38.039Z,23.77
2019-03-23T12:30:09.961Z,24.06
2019-03-23T12:32:40.396Z,23.39
2019-03-23T12:35:09.390Z,24.30
2019-03-23T12:37:38.746Z,23.77
2019-03-23T12:40:08.411Z,24.03
2019-03-23T12:42:37.094Z,23.84
2019-03-23T12:45:07.741Z,24.22
2019-03-23T12:47:36.325Z,24.00
2019-03-23T12:50:07.692Z,23.79
2019-03-23T12:52:36.423Z,23.81
2019-03-23T12:55:09.580Z,23.52
2019-03-23T12:57:38.371Z,23.36
2019-03-23T13:00:13.082Z,23.75
2019-03-23T13:02:41.753Z,23.74
2019-03-23T13:05:10.443Z,23.74
2019-03-23T13:07:39.116Z,23.78
2019-03-23T13:10:12.759Z,23.65
2019-03-23T13:12:41.501Z,23.94
2019-03-23T13:15:13.120Z,23.63
2019-03-23T13:17:42.027Z,23.96
2019-03-23T13:20:11.793Z,23.80
2019-03-23T13:22:40.480Z,23.53
2019-03-23T13:25:10.486Z,23.79
2019-03-23T13:27:42.217Z,23.76
2019-03-23T13:30:17.383Z,23.71
2019-03-23T13:32:45.987Z,23.92
2019-03-23T13:35:14.697Z,24.02
2019-03-23T13:37:43.651Z,23.58
2019-03-23T13:40:13.529Z,23.49
2019-03-23T13:42:42.290Z,23.57
2019-03-23T13:45:11.455Z,23.95
2019-03-23T13:47:40.477Z,23.70
2019-03-23T13:50:11.295Z,24.02
2019-03-23T13:52:39.998Z,24.20
2019-03-23T13:55:10.108Z,23.90
2019-03-23T13:57:39.346Z,24.36
2019-03-23T14:00:09.145Z,24.22
2019-03-23T14:02:38.899Z,24.36
2019-03-23T14:05:16.091Z,24.48
2019-03-23T14:07:41.184Z,24.68
2019-03-23T14:10:09.979Z,24.05
2019-03-23T14:12:38.575Z,24.30
2019-03-23T14:15:08.369Z,24.13
2019-03-23T14:17:38.413Z,24.20
2019-03-23T14:20:07.889Z,24.06
2019-03-23T14:22:36.767Z,24.08
2019-03-23T14:25:09.962Z,24.28
2019-03-23T14:27:38.646Z,24.44
2019-03-23T14:30:10.399Z,24.28
2019-03-23T14:32:39.111Z,24.12
2019-03-23T14:35:12.850Z,24.24
2019-03-23T14:37:41.510Z,24.26
2019-03-23T14:40:10.828Z,24.37
2019-03-23T14:42:41.025Z,24.26
2019-03-23T14:45:09.766Z,24.45
2019-03-23T14:47:38.426Z,24.56
2019-03-23T14:50:10.349Z,24.55
2019-03-23T14:52:39.005Z,24.23
2019-03-23T14:55:07.760Z,23.90
2019-03-23T14:57:36.403Z,23.92
2019-03-23T15:00:08.404Z,24.12
2019-03-23T15:02:37.118Z,24.11
2019-03-23T15:05:08.220Z,23.92
2019-03-23T15:07:36.778Z,23.97
2019-03-23T15:10:09.537Z,23.78
2019-03-23T15:12:38.378Z,23.66
2019-03-23T15:15:08.801Z,23.56
2019-03-23T15:17:37.451Z,23.37
2019-03-23T15:20:07.113Z,23.49
2019-03-23T15:22:35.768Z,23.40
2019-03-23T15:25:08.288Z,23.51
2019-03-23T15:27:37.989Z,22.76
2019-03-23T15:30:08.508Z,22.93
2019-03-23T15:32:37.122Z,23.28
2019-03-23T15:35:07.455Z,22.92
2019-03-23T15:37:36.766Z,21.64
2019-03-23T15:40:07.574Z,21.47
2019-03-23T15:42:37.825Z,20.89
2019-03-23T15:45:08.869Z,20.98
2019-03-23T15:47:37.524Z,21.28
2019-03-23T15:50:09.904Z,21.66
2019-03-23T15:52:38.485Z,23.13
2019-03-23T15:55:07.985Z,23.67
2019-03-23T15:57:37.040Z,23.93
2019-03-23T16:00:08.752Z,24.16
2019-03-23T16:02:37.471Z,24.03
2019-03-23T16:05:09.463Z,24.17
2019-03-23T16:07:38.048Z,24.03
2019-03-23T16:10:08.700Z,24.24
2019-03-23T16:12:38.002Z,24.30
2019-03-23T16:15:08.907Z,24.25
2019-03-23T16:17:37.506Z,24.21
2019-03-23T16:20:09.212Z,24.38
2019-03-23T16:22:37.960Z,24.52
2019-03-23T16:25:10.776Z,24.73
2019-03-23T16:27:40.539Z,24.91
2019-03-23T16:30:11.563Z,24.77
2019-03-23T16:32:40.289Z,24.74
2019-03-23T16:35:09.076Z,24.89
2019-03-23T16:37:37.717Z,24.91
2019-03-23T16:40:09.326Z,25.26
2019-03-23T16:42:45.146Z,25.17
2019-03-23T16:45:10.392Z,25.50
2019-03-23T16:47:38.972Z,25.62
2019-03-23T16:50:10.938Z,25.74
2019-03-23T16:52:39.656Z,25.61
2019-03-23T16:55:11.824Z,25.69
2019-03-23T16:57:40.731Z,25.68
2019-03-23T17:00:11.992Z,25.76
2019-03-23T17:02:40.709Z,25.81
2019-03-23T17:05:09.679Z,25.86
2019-03-23T17:07:38.277Z,25.97
2019-03-23T17:10:08.971Z,25.81
2019-03-23T17:12:37.653Z,25.84
2019-03-23T17:15:07.804Z,26.09
2019-03-23T17:17:36.678Z,26.16
2019-03-23T17:20:06.668Z,25.36
2019-03-23T17:22:35.432Z,25.36
2019-03-23T17:25:06.783Z,25.79
2019-03-23T17:27:37.258Z,26.06
2019-03-23T17:30:07.108Z,26.06
2019-03-23T17:32:36.305Z,26.21
2019-03-23T17:35:07.452Z,26.21
2019-03-23T17:37:36.116Z,26.51
2019-03-23T17:40:06.938Z,26.31
2019-03-23T17:42:35.642Z,25.18
2019-03-23T17:45:06.865Z,25.48
2019-03-23T17:47:35.579Z,25.33
2019-03-23T17:50:05.094Z,26.16
2019-03-23T17:52:37.091Z,25.29
2019-03-23T17:55:07.109Z,25.27
2019-03-23T17:57:35.809Z,25.19
2019-03-23T18:00:07.369Z,25.49
2019-03-23T18:02:36.577Z,25.49
2019-03-23T18:05:12.267Z,25.09
2019-03-23T18:07:41.126Z,25.30
2019-03-23T18:10:10.541Z,25.64
2019-03-23T18:12:39.244Z,24.98
2019-03-23T18:15:09.079Z,25.70
2019-03-23T18:17:37.794Z,26.16
2019-03-23T18:20:07.560Z,26.40
2019-03-23T18:22:36.281Z,26.28
2019-03-23T18:25:07.260Z,26.63
2019-03-23T18:27:35.938Z,26.18
2019-03-23T18:30:16.709Z,26.36
2019-03-23T18:32:45.834Z,26.59
2019-03-23T18:35:14.531Z,25.44
2019-03-23T18:37:43.418Z,25.25
2019-03-23T18:40:12.129Z,25.39
2019-03-23T18:42:40.760Z,25.82
2019-03-23T18:45:10.049Z,25.85
2019-03-23T18:47:38.760Z,25.72
2019-03-23T18:50:07.898Z,25.36
2019-03-23T18:52:36.531Z,25.88
2019-03-23T18:55:07.127Z,25.95
2019-03-23T18:57:35.847Z,26.07
2019-03-23T19:00:10.933Z,26.19
2019-03-23T19:02:39.564Z,26.48
2019-03-23T19:05:09.773Z,25.37
2019-03-23T19:07:38.429Z,24.51
2019-03-23T19:10:07.583Z,25.08
2019-03-23T19:12:36.271Z,25.97
2019-03-23T19:15:06.825Z,26.08
2019-03-23T19:17:35.518Z,26.37
2019-03-23T19:20:06.822Z,26.36
2019-03-23T19:22:35.478Z,26.40
2019-03-23T19:25:15.826Z,26.60
2019-03-23T19:27:35.631Z,26.75
2019-03-23T19:30:08.999Z,26.92
2019-03-23T19:32:37.696Z,26.93
2019-03-23T19:35:06.603Z,26.79
2019-03-23T19:37:35.194Z,27.36
2019-03-23T19:40:04.793Z,27.65
2019-03-23T19:42:33.516Z,27.60
2019-03-23T19:45:02.183Z,27.87
2019-03-23T19:47:30.876Z,27.95
2019-03-23T19:49:59.599Z,28.02
2019-03-23T19:52:28.366Z,27.61
2019-03-23T19:54:57.049Z,28.27
2019-03-23T19:57:25.561Z,28.73
2019-03-23T19:59:55.453Z,28.00
2019-03-23T20:02:24.155Z,28.51
2019-03-23T20:04:54.649Z,28.85
2019-03-23T20:07:32.757Z,29.31
2019-03-23T20:09:55.891Z,29.14
2019-03-23T20:12:24.466Z,29.11
2019-03-23T20:14:53.198Z,29.40
2019-03-23T20:17:22.061Z,29.82
2019-03-23T20:19:50.645Z,29.68
2019-03-23T20:22:19.230Z,29.89
2019-03-23T20:24:47.988Z,30.11
2019-03-23T20:27:16.705Z,30.88
2019-03-23T20:29:45.346Z,31.21
2019-03-23T20:32:14.029Z,31.40
2019-03-23T20:34:43.473Z,30.94
2019-03-23T20:37:12.130Z,31.29
2019-03-23T20:39:41.488Z,31.63
2019-03-23T20:42:10.140Z,31.48
2019-03-23T20:44:39.018Z,31.85
2019-03-23T20:47:07.674Z,32.12
2019-03-23T20:49:36.434Z,32.09
2019-03-23T20:52:05.132Z,31.96
2019-03-23T20:54:34.447Z,32.05
2019-03-23T20:57:03.104Z,32.43
2019-03-23T20:59:31.921Z,32.68
2019-03-23T21:02:02.053Z,32.80
2019-03-23T21:04:30.916Z,32.60
2019-03-23T21:06:59.498Z,32.68
2019-03-23T21:09:28.232Z,32.75
2019-03-23T21:11:56.878Z,32.95
2019-03-23T21:14:26.041Z,32.96
2019-03-23T21:16:54.677Z,33.10
2019-03-23T21:19:24.956Z,33.40
2019-03-23T21:21:53.586Z,33.51
2019-03-23T21:24:22.318Z,33.58
2019-03-23T21:26:52.256Z,33.49
2019-03-23T21:29:20.885Z,33.25
2019-03-23T21:31:49.466Z,33.15
2019-03-23T21:34:18.116Z,32.81
2019-03-23T21:36:46.874Z,33.23
2019-03-23T21:39:15.514Z,33.67
2019-03-23T21:41:44.085Z,34.07
2019-03-23T21:44:12.849Z,34.12
2019-03-23T21:46:41.506Z,34.04
2019-03-23T21:49:10.184Z,33.96
2019-03-23T21:51:38.831Z,33.87
2019-03-23T21:54:10.283Z,33.90
2019-03-23T21:56:39.012Z,33.84
2019-03-23T21:59:08.195Z,33.77
2019-03-23T22:01:36.711Z,34.26
2019-03-23T22:04:05.342Z,34.50
2019-03-23T22:06:34.031Z,34.54
2019-03-23T22:09:04.284Z,34.72
2019-03-23T22:11:32.936Z,34.57
2019-03-23T22:14:02.268Z,34.31
2019-03-23T22:16:30.929Z,34.06
2019-03-23T22:18:59.445Z,34.05
2019-03-23T22:21:28.054Z,34.11
2019-03-23T22:23:56.698Z,33.13
2019-03-23T22:26:25.405Z,33.57
2019-03-23T22:28:54.023Z,33.54
2019-03-23T22:31:22.678Z,34.14
2019-03-23T22:33:51.389Z,34.16
2019-03-23T22:36:20.076Z,34.28
2019-03-23T22:38:48.654Z,34.67
2019-03-23T22:41:17.295Z,34.44
2019-03-23T22:43:45.911Z,34.72
2019-03-23T22:46:14.553Z,34.55
2019-03-23T22:48:43.195Z,35.12
2019-03-23T22:51:11.873Z,34.88
2019-03-23T22:53:40.522Z,34.86
2019-03-23T22:56:09.167Z,34.96
2019-03-23T22:58:38.004Z,35.30
2019-03-23T23:01:06.715Z,34.82
2019-03-23T23:03:35.556Z,34.84
2019-03-23T23:06:04.285Z,35.41
2019-03-23T23:08:32.921Z,35.55
2019-03-23T23:11:01.642Z,35.84
2019-03-23T23:13:30.350Z,35.93
2019-03-23T23:15:58.991Z,36.17
2019-03-23T23:18:27.637Z,36.04
2019-03-23T23:20:58.264Z,36.55
2019-03-23T23:23:26.992Z,36.54
2019-03-23T23:25:55.625Z,37.01
2019-03-23T23:28:24.186Z,37.69
2019-03-23T23:30:52.766Z,37.14
2019-03-23T23:33:23.757Z,36.80
2019-03-23T23:35:52.665Z,36.86
2019-03-23T23:38:21.130Z,36.30
2019-03-23T23:40:49.687Z,35.75
2019-03-23T23:43:18.374Z,35.92
2019-03-23T23:45:47.021Z,36.36
2019-03-23T23:48:15.606Z,36.47
2019-03-23T23:50:44.150Z,36.17
2019-03-23T23:53:12.965Z,35.90
2019-03-23T23:55:41.678Z,35.68
2019-03-23T23:58:10.364Z,35.79
